INGA4: Red River, Index, AR

                                SHEF ID:       INGA4     Red River at Index, AR
STATION TYPE: Stream Gauge
Regulating: Stage = 19.80, Flow = 104273

PRECIP STAGE RIV-FLOW WTR-TEMP BAT-LOAD
in ft cfs F volt
Ccp-Rev Ccp-Rev Ccp-Rev Ccp-Rev Ccp-Rev
(America/Chicago)
02/21 00:00 0.00 2.20 6997 60.48 12.68
02/21 01:00 0.00 2.19 6962 60.31 12.67
02/21 02:00 0.00 2.18 6928 60.12 12.67
02/21 03:00 0.00 2.15 6824 59.90 12.65
02/21 04:00 0.00 2.15 6824 59.76 12.63
02/21 05:00 0.00 2.13 6756 59.58 12.61
02/21 06:00 0.00 2.12 6721 59.41 12.59
02/21 07:00 0.00 2.10 6653 59.29 12.57
02/21 08:00 0.00 2.09 6619 59.18 12.56
02/21 09:00 0.00 2.07 6551 59.13 12.84
02/21 10:00 0.00 2.06 6517 59.09 13.62
02/21 11:00 0.00 2.04 6449 59.09 13.75
02/21 12:00 0.00 2.03 6415 59.23 13.72
02/21 13:00 0.00 2.01 6348 59.54 13.64
02/21 14:00 0.00 2.00 6314 59.86 13.55
02/21 15:00 0.00 1.98 6247 60.19 13.48
02/21 16:00 0.00 1.97 6214 60.49 13.39
02/21 17:00 0.00 1.95 6147 60.75 13.32
02/21 18:00 0.00 1.94 6113 60.80 13.27
02/21 19:00 0.00 1.91 6013 60.82 13.03
02/21 20:00 0.00 1.90 5980 60.78 12.79
02/21 21:00 0.00 1.88 5914 60.69 12.73
02/21 22:00 0.00 1.87 5881 60.49 12.71
02/21 23:00 0.00 1.85 5815 60.24 12.68
Data processed at Sun 22Feb2026 05:11 GMT

NOTICE: If you are parsing this page

Please convert to using our Data API. Starting early 2026 we will be migrating to: https://water.usace.army.mil with modern pages rendered in JavaScript. When this migration completes you will no longer be able to scrape this page! CWMSDataAPI (CDA)

Timeseries IDs (TSIDs)

TSIDs used from left to right in the data table
INDX.Precip-Inc.Total.1Hour.1Hour.Ccp-Rev
INDX.Stage.Inst.1Hour.0.Ccp-Rev
INDX.Flow.Inst.1Hour.0.Ccp-Rev
INDX.Temp-Water.Inst.1Hour.0.Ccp-Rev
INDX.Volt-Battery Load.Inst.1Hour.0.Ccp-Rev

                            

All information presented herein is the property of the government of the United States of America and may be revised or deleted at any time without prior notice. Dissemination of this information without the expressed written consent of the Public Affairs Office, Tulsa District U.S. Army Corps of Engineers is strictly prohibited. These data are gathered electronically and, as presented, have NOT undergone any form of quality control. These data are NOT guaranteed to be valid or correct.